Time;durP1;ratioP1;P1;durP2;ratioP2;P2;SDS_P1;SDS_P2;PMS_P1;PMS_P2;Temp;Humidity;BMP_temperature;BMP_pressure;BME280_temperature;BME280_humidity;BME280_pressure;Samples;Min_cycle;Max_cycle;Signal;HPM_P1;HPM_P2
2022/06/28 10:56:13;;;;;;;3.42;1.42;;;21.20;99.90;;;;;;5090920;28;20665;-75
2022/06/28 10:58:59;;;;;;;2.55;1.52;;;20.40;99.90;;;;;;5089667;28;20240;-76
2022/06/28 11:01:40;;;;;;;2.33;1.38;;;20.50;99.90;;;;;;5090825;28;20175;-76
2022/06/28 11:04:12;;;;;;;1.77;1.33;;;20.60;99.90;;;;;;5090722;28;20159;-76
2022/06/28 11:06:42;;;;;;;1.80;1.52;;;20.70;99.90;;;;;;5090717;28;20260;-76
2022/06/28 11:09:28;;;;;;;1.52;1.42;;;20.60;99.90;;;;;;5090620;28;20182;-76
2022/06/28 11:12:05;;;;;;;3.08;1.40;;;20.50;99.90;;;;;;5090692;28;20178;-76
2022/06/28 11:14:34;;;;;;;1.70;1.60;;;20.50;99.90;;;;;;5089120;28;20241;-76
2022/06/28 11:17:00;;;;;;;1.92;1.30;;;20.60;99.90;;;;;;5089226;28;20179;-76
2022/06/28 11:19:26;;;;;;;1.48;1.27;;;20.60;99.90;;;;;;5090427;28;20163;-77
2022/06/28 11:21:55;;;;;;;5.10;1.63;;;20.70;99.90;;;;;;5090261;28;20175;-76
2022/06/28 11:24:23;;;;;;;3.67;2.28;;;20.80;99.90;;;;;;5090300;28;20176;-76
2022/06/28 11:29:33;;;;;;;3.00;1.65;;;21.20;99.90;;;;;;5090264;28;20178;-75
2022/06/28 11:31:59;;;;;;;2.47;1.30;;;21.10;99.90;;;;;;5090184;28;20167;-76
2022/06/28 11:34:25;;;;;;;1.85;1.75;;;21.20;99.90;;;;;;5088763;28;20195;-76
2022/06/28 11:36:55;;;;;;;4.00;1.45;;;21.40;99.90;;;;;;5090071;28;20250;-76
2022/06/28 11:39:23;;;;;;;1.23;1.17;;;21.50;99.90;;;;;;5090016;28;20242;-76
2022/06/28 11:41:50;;;;;;;2.38;1.50;;;21.90;99.90;;;;;;5088965;28;20573;-76
2022/06/28 11:44:17;;;;;;;2.13;1.88;;;21.70;99.90;;;;;;5089957;28;20167;-76
2022/06/28 11:46:44;;;;;;;2.72;1.48;;;21.50;99.90;;;;;;5089996;28;20164;-76
2022/06/28 11:49:10;;;;;;;2.30;1.83;;;21.20;99.90;;;;;;5089940;28;20182;-76
2022/06/28 11:51:35;;;;;;;1.70;1.60;;;21.00;99.90;;;;;;5089840;28;20527;-76
2022/06/28 11:54:08;;;;;;;1.70;1.60;;;20.90;99.90;;;;;;5089404;28;20335;-76
2022/06/28 11:56:45;;;;;;;2.75;1.75;;;20.80;99.90;;;;;;5088454;28;20201;-76
2022/06/28 11:59:12;;;;;;;1.08;1.05;;;20.80;99.90;;;;;;5089497;28;20171;-76
2022/06/28 12:01:40;;;;;;;2.30;1.67;;;21.00;99.90;;;;;;5089610;28;20620;-76
2022/06/28 12:04:09;;;;;;;2.28;1.40;;;21.20;99.90;;;;;;5089620;28;20259;-76
2022/06/28 12:06:39;;;;;;;8.60;1.30;;;21.30;99.90;;;;;;5080597;28;20174;-76
2022/06/28 12:09:06;;;;;;;1.95;1.40;;;21.30;99.90;;;;;;5076303;28;20167;-76
2022/06/28 12:11:35;;;;;;;2.63;1.38;;;21.50;99.90;;;;;;5076015;28;20171;-76
2022/06/28 12:14:05;;;;;;;4.60;1.75;;;21.70;99.90;;;;;;5075854;28;20195;-76
2022/06/28 12:16:47;;;;;;;3.17;1.40;;;21.70;99.90;;;;;;5075822;28;20710;-76
2022/06/28 12:19:15;;;;;;;2.75;1.20;;;21.90;99.90;;;;;;5075861;28;20171;-76
2022/06/28 12:22:10;;;;;;;2.08;1.58;;;22.20;99.90;;;;;;5075788;28;20164;-76
2022/06/28 12:24:50;;;;;;;1.15;1.05;;;22.40;99.90;;;;;;5074523;28;20212;-76
2022/06/28 12:27:21;;;;;;;2.65;1.40;;;22.60;99.90;;;;;;5074443;28;20171;-76
2022/06/28 12:29:48;;;;;;;2.35;1.48;;;22.90;99.90;;;;;;5075701;28;20190;-76
2022/06/28 12:32:15;;;;;;;1.95;1.23;;;23.20;99.90;;;;;;5075631;28;20278;-77
2022/06/28 12:34:40;;;;;;;1.95;1.67;;;23.60;99.90;;;;;;5075595;28;20530;-76
2022/06/28 12:37:07;;;;;;;2.97;1.40;;;23.90;99.90;;;;;;5075445;28;20171;-77
2022/06/28 12:39:32;;;;;;;1.75;1.45;;;23.80;99.90;;;;;;5075457;28;20164;-76
2022/06/28 12:41:58;;;;;;;3.15;1.52;;;23.80;99.90;;;;;;5075238;28;20175;-76
2022/06/28 12:44:24;;;;;;;1.98;1.20;;;23.80;99.90;;;;;;5075325;28;20255;-76
2022/06/28 12:46:51;;;;;;;40.33;31.83;;;24.10;99.90;;;;;;5074072;28;20175;-77
2022/06/28 12:49:21;;;;;;;3.50;3.20;;;24.40;99.90;;;;;;5075260;28;20164;-76
2022/06/28 12:51:47;;;;;;;1.30;1.20;;;24.80;99.90;;;;;;5075240;28;20164;-76
2022/06/28 12:54:13;;;;;;;5.03;1.77;;;25.20;99.90;;;;;;5074810;28;20680;-77
2022/06/28 12:56:39;;;;;;;1.17;1.13;;;25.50;99.90;;;;;;5075126;28;20233;-76
2022/06/28 12:59:04;;;;;;;3.05;1.10;;;25.80;99.90;;;;;;5075055;28;20176;-76
2022/06/28 13:01:30;;;;;;;5.60;1.00;;;26.10;99.90;;;;;;5075098;28;20249;-76
2022/06/28 13:03:56;;;;;;;1.80;1.20;;;25.90;99.90;;;;;;5075002;28;20620;-76
2022/06/28 13:06:21;;;;;;;1.75;1.40;;;25.70;99.90;;;;;;5075024;28;20172;-76
2022/06/28 13:08:47;;;;;;;1.67;1.10;;;25.60;99.90;;;;;;5074841;28;20175;-76
2022/06/28 13:11:13;;;;;;;5.45;1.20;;;25.90;99.90;;;;;;5074771;28;20652;-76
2022/06/28 13:13:39;;;;;;;11.18;7.60;;;26.10;99.90;;;;;;5074684;28;20208;-76
2022/06/28 13:16:06;;;;;;;3.45;1.30;;;26.30;99.90;;;;;;5074743;28;20251;-76
2022/06/28 13:18:32;;;;;;;5.95;5.13;;;26.50;99.90;;;;;;5072427;28;20164;-76
2022/06/28 13:20:58;;;;;;;1.30;1.17;;;26.80;99.90;;;;;;5074730;28;20241;-76
2022/06/28 13:23:26;;;;;;;1.33;1.23;;;27.00;99.90;;;;;;5074573;28;20633;-76
2022/06/28 13:25:53;;;;;;;2.08;1.45;;;27.10;99.90;;;;;;5074392;28;20168;-76
2022/06/28 13:28:18;;;;;;;1.85;1.38;;;27.10;99.90;;;;;;5074517;28;20251;-76
2022/06/28 13:30:45;;;;;;;1.30;1.20;;;26.90;99.90;;;;;;5074277;28;20218;-77
2022/06/28 13:33:11;;;;;;;1.15;0.95;;;26.90;99.90;;;;;;5074442;28;20164;-76
2022/06/28 13:35:38;;;;;;;2.05;1.10;;;26.60;99.90;;;;;;5074368;28;20203;-76
2022/06/28 13:38:04;;;;;;;0.90;0.90;;;26.60;99.90;;;;;;5072976;28;20168;-76
2022/06/28 13:40:30;;;;;;;4.20;1.50;;;26.60;99.90;;;;;;5072826;28;20225;-77
2022/06/28 13:42:56;;;;;;;2.08;1.10;;;26.50;99.90;;;;;;5074233;28;20187;-77
2022/06/28 13:45:22;;;;;;;6.53;4.07;;;26.40;99.90;;;;;;5074128;28;20522;-76
2022/06/28 13:47:48;;;;;;;3.13;2.33;;;26.20;99.90;;;;;;5073923;28;20521;-77
2022/06/28 13:50:14;;;;;;;2.97;2.00;;;25.80;99.90;;;;;;5074081;28;20186;-77
2022/06/28 13:52:43;;;;;;;2.05;1.27;;;25.60;99.90;;;;;;5074047;28;20641;-77
2022/06/28 13:55:13;;;;;;;2.03;1.00;;;25.60;99.90;;;;;;5073733;28;20684;-76
2022/06/28 13:57:39;;;;;;;1.75;1.00;;;25.80;99.90;;;;;;5073903;28;20506;-77
2022/06/28 14:00:10;;;;;;;1.65;0.85;;;26.20;99.90;;;;;;5072783;28;20598;-77
2022/06/28 14:02:36;;;;;;;1.65;0.98;;;26.80;99.90;;;;;;5073789;28;20199;-77
2022/06/28 14:05:02;;;;;;;3.53;1.27;;;27.20;99.90;;;;;;5073769;28;20210;-77
2022/06/28 14:07:28;;;;;;;1.00;1.00;;;27.60;99.90;;;;;;5072439;28;20195;-77
2022/06/28 14:09:54;;;;;;;1.30;1.13;;;27.90;99.20;;;;;;5073748;28;20660;-77
2022/06/28 14:12:20;;;;;;;2.60;1.20;;;28.00;99.10;;;;;;5073680;28;20233;-77
2022/06/28 14:14:45;;;;;;;1.15;0.98;;;28.10;98.10;;;;;;5073635;28;20645;-77
2022/06/28 14:17:11;;;;;;;1.27;1.05;;;28.20;98.40;;;;;;5073673;28;20179;-77
2022/06/28 14:19:37;;;;;;;1.70;1.23;;;28.30;96.70;;;;;;5073613;28;20720;-77
2022/06/28 14:22:02;;;;;;;2.67;1.00;;;28.30;95.90;;;;;;5073522;28;20168;-77
2022/06/28 14:24:28;;;;;;;2.90;1.00;;;28.40;96.00;;;;;;5073570;28;20657;-77
2022/06/28 14:26:55;;;;;;;1.60;1.50;;;28.40;94.80;;;;;;5072318;28;20316;-77
2022/06/28 14:29:23;;;;;;;1.20;0.93;;;28.50;99.90;;;;;;5073439;28;20178;-77
2022/06/28 14:31:49;;;;;;;2.97;1.15;;;28.60;94.20;;;;;;5072155;28;20176;-77
2022/06/28 14:34:15;;;;;;;2.63;1.40;;;28.70;98.50;;;;;;5073175;28;20261;-78
2022/06/28 14:36:41;;;;;;;3.58;1.10;;;28.80;99.90;;;;;;5073203;28;20202;-77
2022/06/28 14:39:07;;;;;;;1.30;1.20;;;29.00;94.30;;;;;;5072117;28;20168;-77
2022/06/28 14:41:33;;;;;;;3.72;1.00;;;29.00;93.30;;;;;;5072248;28;20170;-77
2022/06/28 14:43:58;;;;;;;3.00;0.98;;;29.10;94.50;;;;;;5073341;28;20621;-78
2022/06/28 14:46:24;;;;;;;1.80;0.90;;;28.90;90.70;;;;;;5072079;28;20186;-78
2022/06/28 14:48:50;;;;;;;1.00;0.90;;;28.70;90.30;;;;;;5073275;28;20171;-77
2022/06/28 14:51:16;;;;;;;2.03;1.40;;;28.80;92.70;;;;;;5073255;28;20652;-77
2022/06/28 14:53:41;;;;;;;1.38;0.90;;;28.50;90.60;;;;;;5072926;28;20674;-77
2022/06/28 14:56:07;;;;;;;3.60;1.20;;;28.40;90.80;;;;;;5073243;28;20164;-77
2022/06/28 14:58:33;;;;;;;1.73;1.10;;;28.40;92.40;;;;;;5073197;28;20163;-77
2022/06/28 15:01:02;;;;;;;2.55;0.95;;;28.30;93.70;;;;;;5071889;28;20172;-77
2022/06/28 15:03:29;;;;;;;1.88;1.60;;;28.70;92.80;;;;;;5073174;28;20170;-77
2022/06/28 15:05:55;;;;;;;0.82;0.82;;;29.10;93.80;;;;;;5073104;28;20525;-77
2022/06/28 15:08:20;;;;;;;1.73;1.00;;;29.50;91.90;;;;;;5073124;28;20168;-77
2022/06/28 15:10:46;;;;;;;1.27;0.90;;;29.80;93.80;;;;;;5071808;28;20168;-77
2022/06/28 15:13:14;;;;;;;1.33;1.10;;;29.90;88.50;;;;;;5073098;28;20215;-77
2022/06/28 15:15:40;;;;;;;0.82;0.82;;;29.80;88.90;;;;;;5073355;28;20215;-77
2022/06/28 15:18:06;;;;;;;4.53;1.27;;;29.50;89.30;;;;;;5071718;28;20229;-77
2022/06/28 15:20:31;;;;;;;2.05;0.85;;;28.90;88.60;;;;;;5072965;28;20171;-77
2022/06/28 15:31:09;;;;;;;2.90;1.23;;;27.20;95.30;;;;;;5072931;28;20523;-77
2022/06/28 15:33:35;;;;;;;2.53;1.13;;;27.20;93.00;;;;;;5072874;28;20172;-77
2022/06/28 15:36:05;;;;;;;5.68;0.93;;;27.20;93.40;;;;;;5072827;28;20192;-77
2022/06/28 15:38:31;;;;;;;1.10;1.05;;;27.50;93.90;;;;;;5072809;28;20191;-77
2022/06/28 15:40:57;;;;;;;2.45;1.00;;;28.10;93.30;;;;;;5072257;28;20225;-77
2022/06/28 15:43:23;;;;;;;1.30;1.20;;;28.50;92.60;;;;;;5076524;28;20164;-77
2022/06/28 15:45:49;;;;;;;0.90;0.90;;;28.90;91.20;;;;;;5076487;28;20176;-77
2022/06/28 15:48:16;;;;;;;2.47;1.35;;;29.20;88.90;;;;;;5076488;28;20172;-77
2022/06/28 15:50:42;;;;;;;1.20;1.10;;;29.30;91.60;;;;;;5075084;28;20584;-77
2022/06/28 15:53:08;;;;;;;1.20;0.98;;;29.70;90.40;;;;;;5074988;28;20661;-77
2022/06/28 15:55:34;;;;;;;1.85;0.90;;;29.80;90.30;;;;;;5074810;28;20335;-77
2022/06/28 15:58:01;;;;;;;1.60;1.50;;;30.00;86.20;;;;;;5076196;28;20199;-77
2022/06/28 16:00:28;;;;;;;1.02;1.02;;;30.20;85.90;;;;;;5076133;28;20163;-77
2022/06/28 16:02:53;;;;;;;1.23;1.13;;;30.20;87.00;;;;;;5076129;28;20636;-77
2022/06/28 16:05:20;;;;;;;2.20;2.00;;;30.20;84.70;;;;;;5076033;28;20259;-77
2022/06/28 16:07:46;;;;;;;1.25;1.20;;;30.30;85.50;;;;;;5076035;28;20178;-77
2022/06/28 16:10:12;;;;;;;0.90;0.90;;;30.30;83.90;;;;;;5074760;28;20270;-77
2022/06/28 16:12:54;;;;;;;0.85;0.85;;;30.30;82.40;;;;;;5076017;28;20164;-77
2022/06/28 16:15:35;;;;;;;1.20;0.90;;;30.30;83.70;;;;;;5075934;28;20195;-77
2022/06/28 16:18:03;;;;;;;1.48;1.00;;;30.40;82.30;;;;;;5074665;28;20203;-77
2022/06/28 16:20:30;;;;;;;2.25;1.40;;;30.40;82.70;;;;;;5075915;28;20259;-77
2022/06/28 16:22:56;;;;;;;1.17;1.10;;;30.50;80.30;;;;;;5075737;28;20222;-79
2022/06/28 16:25:22;;;;;;;2.67;2.30;;;30.40;78.70;;;;;;5075778;28;20199;-78
2022/06/28 16:27:49;;;;;;;1.20;1.20;;;30.50;80.10;;;;;;5075754;28;20168;-77
2022/06/28 16:30:16;;;;;;;1.55;0.90;;;30.60;79.30;;;;;;5074462;28;20515;-77
2022/06/28 16:32:42;;;;;;;0.90;0.90;;;30.50;81.00;;;;;;5075693;28;20203;-77
2022/06/28 16:35:08;;;;;;;2.28;1.10;;;30.80;78.30;;;;;;5075537;28;20341;-77
2022/06/28 16:37:34;;;;;;;1.10;1.00;;;30.90;79.30;;;;;;5075554;28;20337;-78
2022/06/28 16:39:59;;;;;;;2.97;1.77;;;31.20;76.10;;;;;;5075482;28;20637;-78
2022/06/28 16:42:25;;;;;;;2.13;1.40;;;31.10;78.60;;;;;;5074214;28;20168;-78
2022/06/28 16:44:52;;;;;;;1.15;0.90;;;31.20;77.40;;;;;;5075373;28;20531;-78
2022/06/28 16:47:19;;;;;;;1.40;1.30;;;31.30;78.90;;;;;;5075337;28;20174;-78
2022/06/28 16:49:45;;;;;;;1.63;0.90;;;31.40;77.60;;;;;;5074203;28;20178;-78
2022/06/28 16:52:11;;;;;;;1.52;0.93;;;31.40;77.60;;;;;;5075077;28;20628;-77
2022/06/28 16:54:36;;;;;;;1.13;1.08;;;31.60;73.70;;;;;;5074776;28;20219;-78
2022/06/28 16:57:02;;;;;;;3.50;1.05;;;31.60;73.80;;;;;;5075142;28;20179;-77
2022/06/28 16:59:28;;;;;;;0.93;0.93;;;31.70;72.60;;;;;;5075058;28;20175;-77
2022/06/28 17:01:53;;;;;;;7.28;1.33;;;31.50;74.50;;;;;;5075108;28;20172;-77
2022/06/28 17:04:19;;;;;;;1.45;1.38;;;31.40;74.00;;;;;;5075036;28;20242;-77
2022/06/28 17:09:28;;;;;;;0.80;0.80;;;30.90;73.20;;;;;;5074927;28;20639;-77
2022/06/28 17:11:54;;;;;;;1.15;1.15;;;31.00;73.60;;;;;;5073684;28;20167;-77
2022/06/28 17:14:20;;;;;;;3.30;0.95;;;31.20;71.80;;;;;;5074859;28;20174;-77
2022/06/28 17:16:45;;;;;;;1.33;1.00;;;31.40;70.80;;;;;;5074694;28;20414;-77
2022/06/28 17:19:11;;;;;;;1.38;1.08;;;31.30;74.00;;;;;;5074609;28;20260;-77
2022/06/28 17:21:36;;;;;;;0.90;0.90;;;31.30;73.10;;;;;;5074703;28;20164;-77
2022/06/28 17:24:02;;;;;;;2.65;0.95;;;31.50;70.80;;;;;;5074598;28;20195;-77
2022/06/28 17:26:29;;;;;;;1.25;1.00;;;31.50;69.40;;;;;;5074546;28;20164;-78
2022/06/28 17:28:55;;;;;;;2.25;1.00;;;30.80;72.10;;;;;;5074479;28;20168;-77
2022/06/28 17:31:20;;;;;;;1.20;1.10;;;30.40;75.00;;;;;;5074408;28;20246;-77
2022/06/28 17:33:46;;;;;;;1.17;1.17;;;30.60;72.10;;;;;;5074337;28;20321;-78
2022/06/28 17:36:11;;;;;;;1.17;1.13;;;30.50;73.30;;;;;;5074277;28;20168;-77
2022/06/28 17:38:37;;;;;;;0.98;0.85;;;30.70;70.80;;;;;;5072874;28;20190;-77
2022/06/28 17:41:02;;;;;;;1.30;1.20;;;30.80;72.20;;;;;;5074223;28;20194;-78
2022/06/28 17:43:28;;;;;;;1.52;1.00;;;30.80;72.70;;;;;;5074266;28;20221;-77
2022/06/28 17:45:54;;;;;;;0.88;0.88;;;30.70;72.10;;;;;;5072818;28;20329;-77
2022/06/28 17:48:20;;;;;;;0.63;0.63;;;30.80;72.50;;;;;;5074073;28;20167;-77
2022/06/28 17:50:46;;;;;;;1.13;1.02;;;30.50;71.10;;;;;;5074061;28;20648;-77
2022/06/28 17:53:11;;;;;;;4.80;1.10;;;30.40;73.10;;;;;;5073830;28;20191;-77
2022/06/28 17:55:37;;;;;;;0.95;0.95;;;30.50;72.20;;;;;;5073812;28;20224;-77
2022/06/28 17:58:02;;;;;;;4.13;1.02;;;30.50;72.50;;;;;;5073924;28;20172;-77
2022/06/28 18:00:28;;;;;;;0.98;0.98;;;30.50;72.00;;;;;;5073919;28;20164;-77
2022/06/28 18:02:54;;;;;;;2.67;1.17;;;30.40;73.90;;;;;;5073823;28;20172;-77
2022/06/28 18:05:21;;;;;;;3.38;0.90;;;30.10;74.20;;;;;;5073289;28;20192;-78
2022/06/28 18:07:47;;;;;;;1.42;1.30;;;30.20;72.50;;;;;;5073788;28;20187;-78
2022/06/28 18:10:13;;;;;;;2.15;1.00;;;30.00;73.20;;;;;;5073737;28;20194;-78
2022/06/28 18:12:38;;;;;;;2.33;1.27;;;30.00;73.20;;;;;;5073745;28;20626;-77
2022/06/28 18:15:04;;;;;;;1.20;1.10;;;30.00;72.50;;;;;;5073661;28;20457;-77
2022/06/28 18:17:31;;;;;;;3.22;1.10;;;29.90;73.70;;;;;;5073629;28;20182;-77
2022/06/28 18:19:56;;;;;;;0.85;0.85;;;29.80;72.60;;;;;;5073683;28;20206;-77
2022/06/28 18:22:22;;;;;;;1.17;1.02;;;29.70;72.30;;;;;;5073639;28;20172;-78
2022/06/28 18:24:48;;;;;;;0.93;0.88;;;29.60;75.00;;;;;;5073459;28;20191;-77
2022/06/28 18:27:14;;;;;;;1.45;1.30;;;29.50;75.90;;;;;;5073529;28;20255;-77
2022/06/28 18:29:40;;;;;;;2.80;1.38;;;29.20;78.60;;;;;;5072253;28;20259;-77
2022/06/28 18:32:07;;;;;;;1.05;1.02;;;29.00;80.90;;;;;;5073429;28;20191;-77
2022/06/28 18:34:33;;;;;;;2.08;1.48;;;28.80;83.40;;;;;;5072144;28;20604;-77
2022/06/28 18:37:00;;;;;;;1.40;1.30;;;28.90;82.80;;;;;;5072166;28;20175;-77
2022/06/28 18:39:26;;;;;;;2.05;1.40;;;29.00;84.60;;;;;;5073431;28;20172;-78
2022/06/28 18:41:51;;;;;;;2.28;1.13;;;29.20;83.30;;;;;;5073360;28;20522;-78
2022/06/28 18:44:19;;;;;;;1.15;0.95;;;29.30;82.60;;;;;;5071936;28;20227;-78
2022/06/28 18:46:45;;;;;;;1.85;1.23;;;29.30;82.90;;;;;;5073345;28;20168;-78
2022/06/28 18:49:11;;;;;;;1.40;1.30;;;29.30;84.30;;;;;;5073273;28;20171;-78
2022/06/28 18:51:37;;;;;;;1.83;1.40;;;29.10;84.10;;;;;;5072030;28;20168;-78
2022/06/28 18:54:02;;;;;;;4.22;1.30;;;29.30;82.30;;;;;;5071787;28;20227;-78
2022/06/28 18:56:28;;;;;;;4.45;1.38;;;29.30;81.10;;;;;;5073236;28;20167;-78
2022/06/28 18:58:53;;;;;;;4.63;1.20;;;29.20;84.20;;;;;;5073216;28;20173;-78
2022/06/28 19:01:19;;;;;;;2.35;1.27;;;29.10;85.20;;;;;;5073203;28;20194;-78
2022/06/28 19:03:44;;;;;;;1.40;1.30;;;28.80;86.30;;;;;;5073188;28;20167;-78
2022/06/28 19:06:10;;;;;;;1.35;1.25;;;28.70;84.90;;;;;;5073084;28;20195;-78
2022/06/28 19:08:36;;;;;;;1.90;1.80;;;28.60;86.10;;;;;;5073153;28;20237;-78
2022/06/28 19:11:01;;;;;;;1.67;1.58;;;28.10;89.10;;;;;;5073111;28;20168;-78
2022/06/28 19:13:27;;;;;;;1.20;1.10;;;27.80;90.10;;;;;;5071816;28;20592;-78
2022/06/28 19:15:53;;;;;;;2.17;1.20;;;27.60;91.00;;;;;;5072749;28;20202;-78
2022/06/28 19:18:19;;;;;;;1.30;1.10;;;27.00;92.60;;;;;;5077064;28;20589;-78
2022/06/28 19:20:44;;;;;;;1.52;1.40;;;26.50;94.10;;;;;;5077009;28;20167;-78
2022/06/28 19:23:11;;;;;;;1.63;1.25;;;26.00;96.40;;;;;;5077260;28;20172;-78
2022/06/28 19:25:38;;;;;;;2.03;1.60;;;25.50;98.70;;;;;;5075642;28;20195;-78
